createdAt,value
2018-02-10T00:01:48.279Z,55.47
2018-02-10T00:04:22.795Z,52.70
2018-02-10T00:06:57.207Z,55.28
2018-02-10T00:09:31.678Z,54.47
2018-02-10T00:12:06.075Z,52.75
2018-02-10T00:14:40.464Z,49.63
2018-02-10T00:17:14.939Z,48.25
2018-02-10T00:19:49.577Z,51.37
2018-02-10T00:22:34.852Z,50.00
2018-02-10T00:25:09.242Z,53.53
2018-02-10T00:27:43.903Z,53.60
2018-02-10T00:30:18.479Z,52.60
2018-02-10T00:32:53.906Z,51.80
2018-02-10T00:35:28.959Z,51.65
2018-02-10T00:38:03.359Z,52.88
2018-02-10T00:40:37.851Z,53.80
2018-02-10T00:43:12.246Z,53.90
2018-02-10T00:45:46.799Z,50.20
2018-02-10T00:48:21.220Z,54.00
2018-02-10T00:50:55.793Z,51.92
2018-02-10T00:53:30.305Z,53.45
2018-02-10T00:56:04.892Z,50.58
2018-02-10T00:58:39.416Z,50.67
2018-02-10T01:01:13.929Z,52.78
2018-02-10T01:03:49.173Z,50.00
2018-02-10T01:06:23.520Z,55.35
2018-02-10T01:08:58.079Z,52.42
2018-02-10T01:11:33.794Z,51.47
2018-02-10T01:14:08.304Z,51.63
2018-02-10T01:16:42.793Z,45.12
2018-02-10T01:19:17.408Z,51.55
2018-02-10T01:21:51.867Z,51.35
2018-02-10T01:24:26.443Z,50.25
2018-02-10T01:27:01.000Z,50.55
2018-02-10T01:29:35.624Z,54.13
2018-02-10T01:32:10.008Z,52.00
2018-02-10T01:34:44.446Z,52.78
2018-02-10T01:37:19.036Z,50.50
2018-02-10T01:39:53.436Z,53.80
2018-02-10T01:42:27.966Z,50.67
2018-02-10T01:45:02.554Z,52.10
2018-02-10T01:47:37.011Z,55.65
2018-02-10T01:50:21.528Z,53.55
2018-02-10T01:52:56.223Z,49.97
2018-02-10T01:55:30.832Z,54.45
2018-02-10T01:58:06.042Z,49.88
2018-02-10T02:00:40.644Z,51.53
2018-02-10T02:03:15.108Z,55.65
2018-02-10T02:05:49.445Z,54.17
2018-02-10T02:08:23.935Z,50.30
2018-02-10T02:10:59.248Z,49.17
2018-02-10T02:13:33.767Z,51.35
2018-02-10T02:16:08.346Z,50.10
2018-02-10T02:18:42.731Z,51.22
2018-02-10T02:21:18.083Z,49.47
2018-02-10T02:23:52.588Z,52.35
2018-02-10T02:26:27.190Z,49.58
2018-02-10T02:29:01.705Z,50.25
2018-02-10T02:31:36.304Z,48.80
2018-02-10T02:34:10.780Z,51.67
2018-02-10T02:36:45.291Z,51.83
2018-02-10T02:39:19.672Z,50.85
2018-02-10T02:41:54.065Z,54.92
2018-02-10T02:44:28.664Z,46.55
2018-02-10T02:47:03.283Z,50.20
2018-02-10T02:49:38.321Z,53.53
2018-02-10T02:52:12.828Z,52.80
2018-02-10T02:54:47.417Z,48.38
2018-02-10T02:57:21.856Z,49.08
2018-02-10T02:59:56.227Z,50.08
2018-02-10T03:02:30.737Z,51.72
2018-02-10T03:05:05.179Z,57.25
2018-02-10T03:07:39.703Z,48.45
2018-02-10T03:10:14.267Z,51.10
2018-02-10T03:12:48.892Z,49.38
2018-02-10T03:15:23.417Z,51.00
2018-02-10T03:17:57.862Z,51.90
2018-02-10T03:20:32.504Z,52.15
2018-02-10T03:23:06.969Z,51.97
2018-02-10T03:25:41.560Z,48.63
2018-02-10T03:28:16.133Z,50.65
2018-02-10T03:30:50.682Z,48.63
2018-02-10T03:33:25.055Z,50.85
2018-02-10T03:35:59.483Z,52.45
2018-02-10T03:38:34.017Z,50.05
2018-02-10T03:41:08.565Z,48.95
2018-02-10T03:43:43.245Z,47.03
2018-02-10T03:46:18.511Z,50.25
2018-02-10T03:48:53.060Z,48.58
2018-02-10T03:51:27.575Z,47.35
2018-02-10T03:54:01.951Z,51.22
2018-02-10T03:56:36.507Z,50.85
2018-02-10T03:59:11.168Z,50.47
2018-02-10T04:01:45.809Z,50.45
2018-02-10T04:04:20.262Z,48.92
2018-02-10T04:06:55.568Z,51.92
2018-02-10T04:09:30.083Z,46.80
2018-02-10T04:12:06.059Z,48.10
2018-02-10T04:14:41.340Z,50.38
2018-02-10T04:17:15.719Z,50.10
2018-02-10T04:19:50.110Z,51.78
2018-02-10T04:22:24.543Z,50.78
2018-02-10T04:24:59.095Z,49.33
2018-02-10T04:27:34.323Z,47.08
2018-02-10T04:30:08.889Z,49.45
2018-02-10T04:32:43.460Z,48.70
2018-02-10T04:35:17.876Z,48.90
2018-02-10T04:37:52.323Z,50.53
2018-02-10T04:40:26.694Z,47.95
2018-02-10T04:43:01.300Z,48.85
2018-02-10T04:45:35.907Z,47.83
2018-02-10T04:48:10.509Z,46.63
2018-02-10T04:50:45.624Z,45.15
2018-02-10T04:53:20.058Z,48.53
2018-02-10T04:55:54.632Z,46.88
2018-02-10T04:58:29.011Z,46.15
2018-02-10T05:01:03.445Z,46.70
2018-02-10T05:03:38.731Z,50.03
2018-02-10T05:06:13.110Z,49.20
2018-02-10T05:08:47.571Z,51.80
2018-02-10T05:11:21.951Z,49.92
2018-02-10T05:13:56.483Z,50.63
2018-02-10T05:16:31.101Z,47.30
2018-02-10T05:19:06.450Z,50.12
2018-02-10T05:21:40.991Z,49.22
2018-02-10T05:24:15.373Z,45.35
2018-02-10T05:26:49.859Z,48.13
2018-02-10T05:29:24.438Z,47.03
2018-02-10T05:31:58.876Z,46.95
2018-02-10T05:34:34.380Z,48.35
2018-02-10T05:37:08.787Z,48.97
2018-02-10T05:39:44.087Z,46.90
2018-02-10T05:42:18.493Z,46.10
2018-02-10T05:44:52.989Z,46.25
2018-02-10T05:47:27.588Z,50.08
2018-02-10T05:50:02.073Z,49.25
2018-02-10T05:52:36.698Z,47.03
2018-02-10T05:55:11.288Z,45.85
2018-02-10T05:57:45.831Z,45.85
2018-02-10T06:00:20.344Z,46.20
2018-02-10T06:02:54.933Z,49.58
2018-02-10T06:05:29.443Z,47.13
2018-02-10T06:08:03.869Z,46.92
2018-02-10T06:10:38.456Z,47.88
2018-02-10T06:13:13.089Z,48.30
2018-02-10T06:15:47.491Z,50.25
2018-02-10T06:18:22.095Z,48.35
2018-02-10T06:20:56.465Z,49.40
2018-02-10T06:23:30.867Z,48.47
2018-02-10T06:26:05.445Z,59.03
2018-02-10T06:28:39.937Z,48.17
2018-02-10T06:31:14.277Z,45.55
2018-02-10T06:33:48.797Z,45.33
2018-02-10T06:36:23.205Z,48.67
2018-02-10T06:38:57.625Z,49.10
2018-02-10T06:41:32.262Z,46.00
2018-02-10T06:44:07.599Z,50.55
2018-02-10T06:46:41.994Z,47.40
2018-02-10T06:49:16.433Z,46.05
2018-02-10T06:51:51.736Z,51.58
2018-02-10T06:54:26.158Z,49.50
2018-02-10T06:57:00.720Z,48.35
2018-02-10T06:59:35.236Z,50.28
2018-02-10T07:02:09.604Z,47.90
2018-02-10T07:04:44.139Z,58.30
2018-02-10T07:07:18.688Z,48.65
2018-02-10T07:09:53.099Z,45.65
2018-02-10T07:12:27.523Z,45.85
2018-02-10T07:15:01.927Z,51.35
2018-02-10T07:17:36.480Z,48.40
2018-02-10T07:20:11.101Z,49.78
2018-02-10T07:22:45.463Z,53.10
2018-02-10T07:25:19.817Z,45.58
2018-02-10T07:27:54.163Z,44.40
2018-02-10T07:30:28.716Z,44.83
2018-02-10T07:33:03.212Z,52.15
2018-02-10T07:35:37.616Z,48.75
2018-02-10T07:38:12.126Z,50.10
2018-02-10T07:40:46.552Z,49.40
2018-02-10T07:43:20.936Z,50.78
2018-02-10T07:45:56.231Z,47.80
2018-02-10T07:48:30.801Z,46.13
2018-02-10T07:51:05.325Z,47.22
2018-02-10T07:53:39.751Z,45.90
2018-02-10T07:56:14.129Z,48.97
2018-02-10T07:58:48.660Z,52.65
2018-02-10T08:01:24.644Z,45.67
2018-02-10T08:03:59.027Z,45.85
2018-02-10T08:06:33.492Z,49.45
2018-02-10T08:09:08.020Z,53.38
2018-02-10T08:11:42.508Z,50.88
2018-02-10T08:14:16.951Z,47.58
2018-02-10T08:16:52.215Z,53.85
2018-02-10T08:19:26.854Z,46.50
2018-02-10T08:22:01.391Z,48.50
2018-02-10T08:24:36.776Z,50.80
2018-02-10T08:27:11.230Z,51.58
2018-02-10T08:29:46.006Z,54.58
2018-02-10T08:32:21.191Z,48.55
2018-02-10T08:34:55.530Z,50.03
2018-02-10T08:37:30.130Z,50.53
2018-02-10T08:40:05.429Z,47.15
2018-02-10T08:42:39.935Z,48.83
2018-02-10T08:45:14.272Z,48.42
2018-02-10T08:47:48.630Z,50.15
2018-02-10T08:50:23.270Z,49.10
2018-02-10T08:52:57.761Z,44.63
2018-02-10T08:55:32.305Z,43.63
2018-02-10T08:58:06.931Z,46.45
2018-02-10T09:00:41.397Z,43.65
2018-02-10T09:03:16.004Z,48.10
2018-02-10T09:05:50.390Z,49.20
2018-02-10T09:08:24.824Z,46.25
2018-02-10T09:10:59.426Z,45.20
2018-02-10T09:13:34.072Z,46.53
2018-02-10T09:16:08.616Z,39.25
2018-02-10T09:18:43.233Z,47.88
2018-02-10T09:21:17.635Z,46.53
2018-02-10T09:23:52.212Z,42.78
2018-02-10T09:26:26.792Z,45.88
2018-02-10T09:29:01.338Z,47.58
2018-02-10T09:31:35.697Z,44.13
2018-02-10T09:34:10.110Z,50.15
2018-02-10T09:36:44.511Z,37.13
2018-02-10T09:39:18.894Z,44.63
2018-02-10T09:41:53.383Z,45.90
2018-02-10T09:44:27.907Z,46.00
2018-02-10T09:47:02.436Z,47.15
2018-02-10T09:49:37.827Z,46.83
2018-02-10T09:52:12.231Z,48.05
2018-02-10T09:54:48.559Z,47.62
2018-02-10T09:57:23.068Z,47.92
2018-02-10T09:59:57.600Z,48.03
2018-02-10T10:02:32.163Z,51.03
2018-02-10T10:05:06.526Z,47.15
2018-02-10T10:07:41.142Z,50.65
2018-02-10T10:10:15.672Z,49.90
2018-02-10T10:12:50.234Z,47.28
2018-02-10T10:15:26.316Z,48.97
2018-02-10T10:18:02.399Z,49.42
2018-02-10T10:20:36.908Z,53.13
2018-02-10T10:23:11.508Z,55.22
2018-02-10T10:25:46.087Z,54.22
2018-02-10T10:28:20.570Z,52.33
2018-02-10T10:30:55.133Z,54.38
2018-02-10T10:33:29.540Z,55.42
2018-02-10T10:36:04.028Z,55.28
2018-02-10T10:38:38.508Z,52.80
2018-02-10T10:41:13.139Z,48.10
2018-02-10T10:43:47.665Z,51.58
2018-02-10T10:46:22.077Z,40.00
2018-02-10T10:48:56.596Z,45.67
2018-02-10T10:51:31.943Z,45.17
2018-02-10T10:54:06.453Z,44.45
2018-02-10T10:56:40.940Z,40.40
2018-02-10T10:59:15.488Z,41.20
2018-02-10T11:01:49.954Z,45.05
2018-02-10T11:04:24.445Z,39.10
2018-02-10T11:06:58.925Z,36.50
2018-02-10T11:09:33.287Z,40.15
2018-02-10T11:12:07.663Z,43.33
2018-02-10T11:14:42.256Z,41.72
2018-02-10T11:17:16.835Z,37.97
2018-02-10T11:19:51.196Z,32.40
2018-02-10T11:22:25.556Z,33.38
2018-02-10T11:25:00.811Z,33.38
2018-02-10T11:27:35.251Z,35.75
2018-02-10T11:30:09.670Z,47.47
2018-02-10T11:32:44.128Z,30.52
2018-02-10T11:35:18.504Z,43.85
2018-02-10T11:37:52.934Z,42.58
2018-02-10T11:40:27.567Z,46.95
2018-02-10T11:43:02.065Z,39.72
2018-02-10T11:45:37.181Z,45.20
2018-02-10T11:48:11.659Z,45.75
2018-02-10T11:50:46.247Z,44.85
2018-02-10T11:53:20.657Z,40.33
2018-02-10T11:55:55.248Z,35.55
2018-02-10T11:58:30.344Z,39.65
2018-02-10T12:01:04.872Z,37.88
2018-02-10T12:03:39.346Z,41.63
2018-02-10T12:06:13.850Z,40.35
2018-02-10T12:08:48.478Z,36.90
2018-02-10T12:11:23.008Z,29.35
2018-02-10T12:13:57.589Z,42.28
2018-02-10T12:16:32.152Z,44.10
2018-02-10T12:19:06.662Z,41.60
2018-02-10T12:21:41.203Z,19.20
2018-02-10T12:24:15.823Z,32.13
2018-02-10T12:26:50.390Z,40.53
2018-02-10T12:29:24.910Z,38.50
2018-02-10T12:32:00.291Z,40.92
2018-02-10T12:34:34.733Z,35.63
2018-02-10T12:37:09.042Z,46.63
2018-02-10T12:39:43.403Z,42.28
2018-02-10T12:42:18.816Z,40.78
2018-02-10T12:44:54.149Z,28.98
2018-02-10T12:47:29.345Z,30.80
2018-02-10T12:50:03.811Z,35.03
2018-02-10T12:52:38.968Z,40.72
2018-02-10T12:55:14.263Z,29.00
2018-02-10T12:57:48.789Z,35.67
2018-02-10T13:00:24.059Z,29.70
2018-02-10T13:02:58.499Z,38.17
2018-02-10T13:05:33.095Z,22.92
2018-02-10T13:08:07.519Z,37.20
2018-02-10T13:10:42.107Z,37.00
2018-02-10T13:13:16.514Z,32.05
2018-02-10T13:15:50.976Z,39.38
2018-02-10T13:18:25.587Z,27.33
2018-02-10T13:21:00.196Z,36.70
2018-02-10T13:23:34.720Z,39.65
2018-02-10T13:26:09.251Z,22.55
2018-02-10T13:28:43.776Z,39.17
2018-02-10T13:31:19.024Z,36.60
2018-02-10T13:33:53.598Z,39.78
2018-02-10T13:36:28.851Z,43.15
2018-02-10T13:39:04.140Z,34.83
2018-02-10T13:41:38.618Z,35.22
2018-02-10T13:44:13.206Z,35.67
2018-02-10T13:46:47.665Z,36.50
2018-02-10T13:49:22.137Z,38.97
2018-02-10T13:51:56.495Z,36.42
2018-02-10T13:54:30.953Z,35.13
2018-02-10T13:57:05.408Z,33.63
2018-02-10T13:59:39.947Z,35.90
2018-02-10T14:02:14.421Z,36.20
2018-02-10T14:04:48.943Z,37.38
2018-02-10T14:07:24.163Z,37.45
2018-02-10T14:09:58.669Z,34.97
2018-02-10T14:12:33.812Z,38.78
2018-02-10T14:15:08.152Z,35.17
2018-02-10T14:17:42.654Z,36.67
2018-02-10T14:20:17.177Z,36.92
2018-02-10T14:22:51.848Z,38.38
2018-02-10T14:25:26.932Z,38.28
2018-02-10T14:28:01.303Z,36.95
2018-02-10T14:30:35.802Z,38.17
2018-02-10T14:33:10.238Z,37.10
2018-02-10T14:35:44.861Z,35.40
2018-02-10T14:38:20.852Z,33.55
2018-02-10T14:40:55.425Z,39.90
2018-02-10T14:43:30.711Z,37.83
2018-02-10T14:46:06.024Z,37.28
2018-02-10T14:48:40.545Z,34.20
2018-02-10T14:51:15.037Z,38.50
2018-02-10T14:53:49.434Z,30.88
2018-02-10T14:56:24.669Z,38.72
2018-02-10T14:58:59.052Z,38.75
2018-02-10T15:01:33.544Z,38.05
2018-02-10T15:04:08.132Z,35.42
2018-02-10T15:06:42.713Z,33.55
2018-02-10T15:09:17.104Z,36.38
2018-02-10T15:11:51.684Z,36.00
2018-02-10T15:14:26.163Z,35.28
2018-02-10T15:17:00.680Z,36.25
2018-02-10T15:19:35.188Z,36.58
2018-02-10T15:22:09.650Z,36.05
2018-02-10T15:24:44.073Z,36.95
2018-02-10T15:27:19.290Z,33.95
2018-02-10T15:30:05.794Z,37.40
2018-02-10T15:32:52.135Z,38.40
2018-02-10T15:35:26.690Z,37.97
2018-02-10T15:38:01.161Z,35.05
2018-02-10T15:40:35.697Z,38.47
2018-02-10T15:43:10.005Z,36.50
2018-02-10T15:45:44.497Z,35.58
2018-02-10T15:48:19.039Z,32.97
2018-02-10T15:50:53.427Z,31.55
2018-02-10T15:53:27.992Z,32.67
2018-02-10T15:56:02.471Z,33.25
2018-02-10T15:58:36.973Z,33.90
2018-02-10T16:01:11.455Z,32.65
2018-02-10T16:03:45.952Z,36.15
2018-02-10T16:06:20.327Z,31.87
2018-02-10T16:08:54.967Z,30.33
2018-02-10T16:11:29.498Z,31.35
2018-02-10T16:14:04.000Z,30.60
2018-02-10T16:16:39.184Z,31.62
2018-02-10T16:19:14.278Z,29.98
2018-02-10T16:21:48.909Z,29.35
2018-02-10T16:24:23.524Z,29.52
2018-02-10T16:26:58.060Z,34.08
2018-02-10T16:29:32.664Z,30.55
2018-02-10T16:32:07.807Z,29.92
2018-02-10T16:34:42.284Z,30.05
2018-02-10T16:37:17.076Z,30.10
2018-02-10T16:39:51.456Z,29.10
2018-02-10T16:42:25.989Z,28.90
2018-02-10T16:45:00.519Z,28.35
2018-02-10T16:47:35.072Z,26.58
2018-02-10T16:50:09.546Z,24.25
2018-02-10T16:52:44.024Z,23.62
2018-02-10T16:55:19.180Z,23.42
2018-02-10T16:57:53.707Z,27.60
2018-02-10T17:00:28.283Z,26.23
2018-02-10T17:03:02.783Z,24.75
2018-02-10T17:05:37.310Z,22.10
2018-02-10T17:08:12.409Z,22.45
2018-02-10T17:10:47.588Z,23.77
2018-02-10T17:13:22.088Z,22.95
2018-02-10T17:15:56.636Z,24.05
2018-02-10T17:18:31.002Z,19.48
2018-02-10T17:21:05.769Z,22.02
2018-02-10T17:23:40.171Z,23.00
2018-02-10T17:26:14.676Z,22.98
2018-02-10T17:28:49.960Z,23.90
2018-02-10T17:31:24.363Z,23.58
2018-02-10T17:33:59.596Z,24.12
2018-02-10T17:36:34.389Z,25.10
2018-02-10T17:39:08.938Z,24.85
2018-02-10T17:41:43.523Z,25.88
2018-02-10T17:44:18.065Z,25.33
2018-02-10T17:46:52.557Z,24.27
2018-02-10T17:49:27.023Z,25.52
2018-02-10T17:52:01.587Z,33.70
2018-02-10T17:54:36.149Z,27.65
2018-02-10T17:57:10.500Z,27.10
2018-02-10T17:59:44.906Z,27.48
2018-02-10T18:02:19.347Z,27.75
2018-02-10T18:04:53.881Z,30.50
2018-02-10T18:07:28.383Z,32.08
2018-02-10T18:10:03.603Z,35.75
2018-02-10T18:12:38.921Z,31.20
2018-02-10T18:15:13.306Z,33.33
2018-02-10T18:17:47.847Z,33.83
2018-02-10T18:20:22.413Z,35.47
2018-02-10T18:22:56.959Z,33.97
2018-02-10T18:25:31.381Z,39.78
2018-02-10T18:28:05.760Z,34.80
2018-02-10T18:30:40.993Z,35.05
2018-02-10T18:33:15.480Z,34.78
2018-02-10T18:35:50.036Z,35.35
2018-02-10T18:38:24.569Z,33.38
2018-02-10T18:40:59.052Z,34.50
2018-02-10T18:43:33.556Z,37.97
2018-02-10T18:46:08.075Z,31.95
2018-02-10T18:48:43.360Z,32.33
2018-02-10T18:51:17.836Z,34.40
2018-02-10T18:53:52.328Z,30.12
2018-02-10T18:56:26.881Z,31.80
2018-02-10T18:59:01.656Z,33.70
2018-02-10T19:01:35.988Z,33.95
2018-02-10T19:04:10.547Z,32.88
2018-02-10T19:06:45.217Z,32.45
2018-02-10T19:09:19.856Z,31.58
2018-02-10T19:11:54.217Z,34.78
2018-02-10T19:14:28.701Z,40.28
2018-02-10T19:17:03.189Z,34.47
2018-02-10T19:19:37.651Z,34.15
2018-02-10T19:22:12.213Z,35.65
2018-02-10T19:24:46.671Z,35.28
2018-02-10T19:27:21.267Z,31.25
2018-02-10T19:29:55.671Z,35.00
2018-02-10T19:32:30.272Z,34.13
2018-02-10T19:35:04.606Z,36.65
2018-02-10T19:37:38.959Z,35.72
2018-02-10T19:40:14.305Z,25.08
2018-02-10T19:42:48.877Z,34.22
2018-02-10T19:45:23.320Z,35.08
2018-02-10T19:47:57.848Z,33.28
2018-02-10T19:50:32.524Z,29.75
2018-02-10T19:53:06.982Z,32.30
2018-02-10T19:55:41.444Z,33.20
2018-02-10T19:58:15.816Z,32.28
2018-02-10T20:00:51.217Z,40.70
2018-02-10T20:03:25.684Z,30.48
2018-02-10T20:06:00.254Z,33.13
2018-02-10T20:08:34.721Z,31.08
2018-02-10T20:11:09.269Z,30.08
2018-02-10T20:13:43.824Z,31.15
2018-02-10T20:16:19.059Z,29.33
2018-02-10T20:18:53.586Z,27.77
2018-02-10T20:21:28.177Z,27.15
2018-02-10T20:24:02.627Z,26.15
2018-02-10T20:26:37.116Z,30.45
2018-02-10T20:29:11.587Z,29.52
2018-02-10T20:31:46.118Z,29.17
2018-02-10T20:34:20.501Z,31.15
2018-02-10T20:36:55.028Z,30.50
2018-02-10T20:39:29.486Z,26.87
2018-02-10T20:42:04.106Z,24.35
2018-02-10T20:44:38.543Z,30.90
2018-02-10T20:47:13.037Z,27.37
2018-02-10T20:49:47.470Z,30.37
2018-02-10T20:52:26.809Z,24.33
2018-02-10T20:55:01.248Z,25.77
2018-02-10T20:57:35.571Z,29.37
2018-02-10T21:00:10.081Z,23.67
2018-02-10T21:02:44.719Z,22.85
2018-02-10T21:05:19.317Z,22.20
2018-02-10T21:07:53.816Z,23.62
2018-02-10T21:10:28.312Z,24.33
2018-02-10T21:13:02.700Z,25.17
2018-02-10T21:15:37.310Z,24.27
2018-02-10T21:18:11.761Z,28.42
2018-02-10T21:20:47.028Z,20.90
2018-02-10T21:23:21.436Z,25.52
2018-02-10T21:25:55.969Z,24.70
2018-02-10T21:28:30.416Z,18.45
2018-02-10T21:31:04.984Z,26.35
2018-02-10T21:33:39.460Z,23.05
2018-02-10T21:36:14.062Z,22.55
2018-02-10T21:38:48.646Z,21.12
2018-02-10T21:41:23.991Z,21.12
2018-02-10T21:43:58.541Z,25.30
2018-02-10T21:46:33.104Z,24.70
2018-02-10T21:49:07.615Z,23.83
2018-02-10T21:51:42.125Z,25.02
2018-02-10T21:54:16.536Z,22.65
2018-02-10T21:56:51.804Z,26.65
2018-02-10T21:59:27.157Z,26.27
2018-02-10T22:02:01.817Z,27.08
2018-02-10T22:04:37.070Z,24.77
2018-02-10T22:07:11.590Z,26.60
2018-02-10T22:09:46.075Z,23.20
2018-02-10T22:12:20.562Z,25.12
2018-02-10T22:14:54.980Z,26.80
2018-02-10T22:17:30.216Z,26.23
2018-02-10T22:20:04.712Z,26.62
2018-02-10T22:22:40.066Z,29.15
2018-02-10T22:25:15.404Z,23.08
2018-02-10T22:27:50.231Z,23.90
2018-02-10T22:30:24.808Z,26.92
2018-02-10T22:32:59.300Z,26.23
2018-02-10T22:35:33.752Z,25.23
2018-02-10T22:38:08.268Z,25.35
2018-02-10T22:40:43.852Z,25.48
2018-02-10T22:43:18.481Z,27.05
2018-02-10T22:45:52.917Z,28.05
2018-02-10T22:48:27.906Z,28.10
2018-02-10T22:51:02.356Z,24.30
2018-02-10T22:53:36.799Z,27.52
2018-02-10T22:56:11.178Z,24.15
2018-02-10T22:58:45.625Z,25.37
2018-02-10T23:01:20.156Z,22.30
2018-02-10T23:03:54.703Z,24.58
2018-02-10T23:06:29.295Z,23.73
2018-02-10T23:09:03.716Z,24.87
2018-02-10T23:11:38.889Z,25.55
2018-02-10T23:14:13.387Z,22.25
2018-02-10T23:16:47.940Z,24.77
2018-02-10T23:19:22.285Z,23.90
2018-02-10T23:21:56.879Z,22.50
2018-02-10T23:24:31.335Z,23.00
2018-02-10T23:27:05.868Z,23.35
2018-02-10T23:29:40.387Z,19.37
2018-02-10T23:32:14.891Z,25.55
2018-02-10T23:34:49.418Z,20.05
2018-02-10T23:37:23.815Z,19.55
2018-02-10T23:39:58.434Z,23.58
2018-02-10T23:42:32.773Z,22.58
2018-02-10T23:45:07.195Z,25.23
2018-02-10T23:47:41.644Z,23.48
2018-02-10T23:50:16.971Z,24.45
2018-02-10T23:52:51.632Z,20.52
2018-02-10T23:55:26.283Z,22.48
2018-02-10T23:58:00.824Z,25.70
